sensor_id;sensor_type;location;lat;lon;timestamp;temperature;humidity
27896;DHT22;15241;48.374;10.876;2022-08-21T00:04:15;17.70;99.90
27896;DHT22;15241;48.374;10.876;2022-08-21T00:09:14;17.70;99.90
27896;DHT22;15241;48.374;10.876;2022-08-21T00:14:14;17.70;99.90
27896;DHT22;15241;48.374;10.876;2022-08-21T00:19:14;17.70;99.90
27896;DHT22;15241;48.374;10.876;2022-08-21T00:24:13;17.60;99.90
27896;DHT22;15241;48.374;10.876;2022-08-21T00:29:12;17.60;99.90
27896;DHT22;15241;48.374;10.876;2022-08-21T00:34:12;17.60;99.90
27896;DHT22;15241;48.374;10.876;2022-08-21T00:39:11;17.60;99.90
27896;DHT22;15241;48.374;10.876;2022-08-21T00:44:12;17.50;99.90
27896;DHT22;15241;48.374;10.876;2022-08-21T00:49:12;17.50;99.90
27896;DHT22;15241;48.374;10.876;2022-08-21T00:54:12;17.50;99.90
27896;DHT22;15241;48.374;10.876;2022-08-21T00:59:12;17.50;99.90
27896;DHT22;15241;48.374;10.876;2022-08-21T01:04:11;17.40;99.90
27896;DHT22;15241;48.374;10.876;2022-08-21T01:09:11;17.50;99.90
27896;DHT22;15241;48.374;10.876;2022-08-21T01:14:11;17.50;99.90
27896;DHT22;15241;48.374;10.876;2022-08-21T01:19:10;17.40;99.90
27896;DHT22;15241;48.374;10.876;2022-08-21T01:24:10;17.40;99.90
27896;DHT22;15241;48.374;10.876;2022-08-21T01:29:14;17.30;99.90
27896;DHT22;15241;48.374;10.876;2022-08-21T01:34:12;17.30;99.90
27896;DHT22;15241;48.374;10.876;2022-08-21T01:39:11;17.20;99.90
27896;DHT22;15241;48.374;10.876;2022-08-21T01:44:10;17.20;99.90
27896;DHT22;15241;48.374;10.876;2022-08-21T01:49:09;17.20;99.90
27896;DHT22;15241;48.374;10.876;2022-08-21T01:54:09;17.20;99.90
27896;DHT22;15241;48.374;10.876;2022-08-21T01:59:08;17.10;99.90
27896;DHT22;15241;48.374;10.876;2022-08-21T02:04:10;17.20;99.90
27896;DHT22;15241;48.374;10.876;2022-08-21T02:09:10;17.20;99.90
27896;DHT22;15241;48.374;10.876;2022-08-21T02:14:10;17.20;99.90
27896;DHT22;15241;48.374;10.876;2022-08-21T02:19:09;17.20;99.90
27896;DHT22;15241;48.374;10.876;2022-08-21T02:24:09;17.20;99.90
27896;DHT22;15241;48.374;10.876;2022-08-21T02:29:07;17.20;99.90
27896;DHT22;15241;48.374;10.876;2022-08-21T02:34:06;17.20;99.90
27896;DHT22;15241;48.374;10.876;2022-08-21T02:39:07;17.10;99.90
27896;DHT22;15241;48.374;10.876;2022-08-21T02:44:06;17.20;99.90
27896;DHT22;15241;48.374;10.876;2022-08-21T02:49:05;17.10;99.90
27896;DHT22;15241;48.374;10.876;2022-08-21T02:54:04;17.10;99.90
27896;DHT22;15241;48.374;10.876;2022-08-21T02:59:03;17.00;99.90
27896;DHT22;15241;48.374;10.876;2022-08-21T03:04:02;17.00;99.90
27896;DHT22;15241;48.374;10.876;2022-08-21T03:09:01;16.90;99.90
27896;DHT22;15241;48.374;10.876;2022-08-21T03:14:01;17.00;99.90
27896;DHT22;15241;48.374;10.876;2022-08-21T03:19:00;17.00;99.90
27896;DHT22;15241;48.374;10.876;2022-08-21T03:23:59;16.90;99.90
27896;DHT22;15241;48.374;10.876;2022-08-21T03:28:58;17.00;99.90
27896;DHT22;15241;48.374;10.876;2022-08-21T03:33:57;16.90;99.90
27896;DHT22;15241;48.374;10.876;2022-08-21T03:38:57;17.00;99.90
27896;DHT22;15241;48.374;10.876;2022-08-21T03:43:56;16.90;99.90
27896;DHT22;15241;48.374;10.876;2022-08-21T03:48:55;16.90;99.90
27896;DHT22;15241;48.374;10.876;2022-08-21T03:53:53;16.80;99.90
27896;DHT22;15241;48.374;10.876;2022-08-21T03:58:52;16.80;99.90
27896;DHT22;15241;48.374;10.876;2022-08-21T04:03:51;16.70;99.90
27896;DHT22;15241;48.374;10.876;2022-08-21T04:08:50;16.60;99.90
27896;DHT22;15241;48.374;10.876;2022-08-21T04:13:50;16.60;99.90
27896;DHT22;15241;48.374;10.876;2022-08-21T04:18:49;16.50;99.90
27896;DHT22;15241;48.374;10.876;2022-08-21T04:23:48;16.50;99.90
27896;DHT22;15241;48.374;10.876;2022-08-21T04:28:47;16.50;99.90
27896;DHT22;15241;48.374;10.876;2022-08-21T04:33:46;16.50;99.90
27896;DHT22;15241;48.374;10.876;2022-08-21T04:38:46;16.60;99.90
27896;DHT22;15241;48.374;10.876;2022-08-21T04:43:45;16.70;99.90
27896;DHT22;15241;48.374;10.876;2022-08-21T04:48:43;16.60;99.90
27896;DHT22;15241;48.374;10.876;2022-08-21T04:58:52;16.70;99.90
27896;DHT22;15241;48.374;10.876;2022-08-21T05:03:53;16.70;99.90
27896;DHT22;15241;48.374;10.876;2022-08-21T05:08:55;16.70;99.90
27896;DHT22;15241;48.374;10.876;2022-08-21T05:13:54;16.70;99.90
27896;DHT22;15241;48.374;10.876;2022-08-21T05:18:53;16.80;99.90
27896;DHT22;15241;48.374;10.876;2022-08-21T05:23:52;16.80;99.90
27896;DHT22;15241;48.374;10.876;2022-08-21T05:28:51;16.90;99.90
27896;DHT22;15241;48.374;10.876;2022-08-21T05:33:50;16.90;99.90
27896;DHT22;15241;48.374;10.876;2022-08-21T05:38:49;16.90;99.90
27896;DHT22;15241;48.374;10.876;2022-08-21T05:43:48;17.10;99.90
27896;DHT22;15241;48.374;10.876;2022-08-21T05:48:47;17.10;99.90
27896;DHT22;15241;48.374;10.876;2022-08-21T05:53:46;17.20;99.90
27896;DHT22;15241;48.374;10.876;2022-08-21T05:58:45;17.30;99.90
27896;DHT22;15241;48.374;10.876;2022-08-21T06:03:44;17.30;99.90
27896;DHT22;15241;48.374;10.876;2022-08-21T06:08:43;17.40;99.90
27896;DHT22;15241;48.374;10.876;2022-08-21T06:13:42;17.40;99.90
27896;DHT22;15241;48.374;10.876;2022-08-21T06:18:42;17.40;99.90
27896;DHT22;15241;48.374;10.876;2022-08-21T06:23:42;17.50;99.90
27896;DHT22;15241;48.374;10.876;2022-08-21T06:28:42;17.60;99.90
27896;DHT22;15241;48.374;10.876;2022-08-21T06:33:41;17.80;99.90
27896;DHT22;15241;48.374;10.876;2022-08-21T06:38:40;17.90;99.90
27896;DHT22;15241;48.374;10.876;2022-08-21T06:43:39;18.00;99.90
27896;DHT22;15241;48.374;10.876;2022-08-21T06:48:38;18.00;99.90
27896;DHT22;15241;48.374;10.876;2022-08-21T06:53:37;18.10;99.90
27896;DHT22;15241;48.374;10.876;2022-08-21T06:58:36;18.00;99.90
27896;DHT22;15241;48.374;10.876;2022-08-21T07:03:37;18.20;99.90
27896;DHT22;15241;48.374;10.876;2022-08-21T07:08:37;18.20;99.90
27896;DHT22;15241;48.374;10.876;2022-08-21T07:13:36;18.30;99.90
27896;DHT22;15241;48.374;10.876;2022-08-21T07:18:35;18.40;99.90
27896;DHT22;15241;48.374;10.876;2022-08-21T07:23:38;18.50;99.90
27896;DHT22;15241;48.374;10.876;2022-08-21T07:28:37;18.60;99.90
27896;DHT22;15241;48.374;10.876;2022-08-21T07:33:36;18.80;99.90
27896;DHT22;15241;48.374;10.876;2022-08-21T07:38:36;18.90;99.90
27896;DHT22;15241;48.374;10.876;2022-08-21T07:43:37;18.90;99.90
27896;DHT22;15241;48.374;10.876;2022-08-21T07:48:36;19.10;99.90
27896;DHT22;15241;48.374;10.876;2022-08-21T07:53:35;19.30;99.90
27896;DHT22;15241;48.374;10.876;2022-08-21T07:58:35;19.40;99.90
27896;DHT22;15241;48.374;10.876;2022-08-21T08:03:34;19.60;99.90
27896;DHT22;15241;48.374;10.876;2022-08-21T08:08:33;19.70;99.90
27896;DHT22;15241;48.374;10.876;2022-08-21T08:13:37;20.00;99.90
27896;DHT22;15241;48.374;10.876;2022-08-21T08:18:33;20.20;99.90
27896;DHT22;15241;48.374;10.876;2022-08-21T08:23:32;20.40;99.90
27896;DHT22;15241;48.374;10.876;2022-08-21T08:28:32;20.50;99.90
27896;DHT22;15241;48.374;10.876;2022-08-21T08:33:31;20.70;99.90
27896;DHT22;15241;48.374;10.876;2022-08-21T08:38:30;20.90;99.90
27896;DHT22;15241;48.374;10.876;2022-08-21T08:43:30;21.10;99.90
27896;DHT22;15241;48.374;10.876;2022-08-21T08:48:39;21.40;99.90
27896;DHT22;15241;48.374;10.876;2022-08-21T08:53:42;21.60;99.90
27896;DHT22;15241;48.374;10.876;2022-08-21T09:03:50;22.00;99.90
27896;DHT22;15241;48.374;10.876;2022-08-21T09:08:53;22.30;99.90
27896;DHT22;15241;48.374;10.876;2022-08-21T09:19:05;22.90;99.90
27896;DHT22;15241;48.374;10.876;2022-08-21T09:24:09;23.10;99.90
27896;DHT22;15241;48.374;10.876;2022-08-21T09:29:09;23.30;99.90
27896;DHT22;15241;48.374;10.876;2022-08-21T09:34:10;23.60;99.90
27896;DHT22;15241;48.374;10.876;2022-08-21T09:39:12;23.90;99.90
27896;DHT22;15241;48.374;10.876;2022-08-21T09:44:12;24.10;99.90
27896;DHT22;15241;48.374;10.876;2022-08-21T09:49:11;24.40;99.90
27896;DHT22;15241;48.374;10.876;2022-08-21T09:59:26;25.10;99.90
27896;DHT22;15241;48.374;10.876;2022-08-21T10:04:28;25.40;99.90
27896;DHT22;15241;48.374;10.876;2022-08-21T10:09:27;25.70;99.90
27896;DHT22;15241;48.374;10.876;2022-08-21T10:14:36;25.90;99.90
27896;DHT22;15241;48.374;10.876;2022-08-21T10:19:38;26.30;99.90
27896;DHT22;15241;48.374;10.876;2022-08-21T10:24:41;26.70;99.90
27896;DHT22;15241;48.374;10.876;2022-08-21T10:29:45;26.90;99.90
27896;DHT22;15241;48.374;10.876;2022-08-21T10:34:46;27.20;99.90
27896;DHT22;15241;48.374;10.876;2022-08-21T10:39:50;27.50;99.90
27896;DHT22;15241;48.374;10.876;2022-08-21T10:44:55;27.80;99.90
27896;DHT22;15241;48.374;10.876;2022-08-21T10:49:57;28.10;99.90
27896;DHT22;15241;48.374;10.876;2022-08-21T10:55:00;28.40;99.90
27896;DHT22;15241;48.374;10.876;2022-08-21T11:00:03;28.70;99.90
27896;DHT22;15241;48.374;10.876;2022-08-21T11:05:05;29.10;97.90
27896;DHT22;15241;48.374;10.876;2022-08-21T11:10:08;29.60;96.50
27896;DHT22;15241;48.374;10.876;2022-08-21T11:15:15;30.00;97.00
27896;DHT22;15241;48.374;10.876;2022-08-21T11:20:15;30.00;95.80
27896;DHT22;15241;48.374;10.876;2022-08-21T11:25:19;30.30;93.70
27896;DHT22;15241;48.374;10.876;2022-08-21T11:35:30;31.20;93.20
27896;DHT22;15241;48.374;10.876;2022-08-21T11:40:38;31.60;91.80
27896;DHT22;15241;48.374;10.876;2022-08-21T11:45:40;31.70;91.10
27896;DHT22;15241;48.374;10.876;2022-08-21T11:50:41;31.70;86.40
27896;DHT22;15241;48.374;10.876;2022-08-21T11:55:43;31.90;87.70
27896;DHT22;15241;48.374;10.876;2022-08-21T12:00:46;32.20;83.80
27896;DHT22;15241;48.374;10.876;2022-08-21T12:11:03;31.70;82.30
27896;DHT22;15241;48.374;10.876;2022-08-21T12:16:12;31.60;79.40
27896;DHT22;15241;48.374;10.876;2022-08-21T12:21:25;31.70;81.80
27896;DHT22;15241;48.374;10.876;2022-08-21T12:26:28;31.80;79.90
27896;DHT22;15241;48.374;10.876;2022-08-21T12:31:27;32.10;79.90
27896;DHT22;15241;48.374;10.876;2022-08-21T12:36:34;32.60;81.80
27896;DHT22;15241;48.374;10.876;2022-08-21T12:41:33;32.70;79.60
27896;DHT22;15241;48.374;10.876;2022-08-21T12:46:37;32.80;73.30
27896;DHT22;15241;48.374;10.876;2022-08-21T12:51:42;33.20;78.20
27896;DHT22;15241;48.374;10.876;2022-08-21T12:56:37;32.90;73.30
27896;DHT22;15241;48.374;10.876;2022-08-21T13:01:38;33.00;72.50
27896;DHT22;15241;48.374;10.876;2022-08-21T13:06:40;33.30;73.40
27896;DHT22;15241;48.374;10.876;2022-08-21T13:11:41;33.50;72.60
27896;DHT22;15241;48.374;10.876;2022-08-21T13:16:40;33.40;72.80
27896;DHT22;15241;48.374;10.876;2022-08-21T13:21:42;33.80;74.50
27896;DHT22;15241;48.374;10.876;2022-08-21T13:31:51;34.20;66.70
27896;DHT22;15241;48.374;10.876;2022-08-21T13:36:52;34.50;64.10
27896;DHT22;15241;48.374;10.876;2022-08-21T13:42:11;34.60;66.10
27896;DHT22;15241;48.374;10.876;2022-08-21T13:47:13;34.70;65.00
27896;DHT22;15241;48.374;10.876;2022-08-21T13:52:18;34.70;64.50
27896;DHT22;15241;48.374;10.876;2022-08-21T13:57:25;35.30;66.50
27896;DHT22;15241;48.374;10.876;2022-08-21T14:02:22;35.10;65.10
27896;DHT22;15241;48.374;10.876;2022-08-21T14:12:34;35.50;61.00
27896;DHT22;15241;48.374;10.876;2022-08-21T14:17:36;35.90;64.60
27896;DHT22;15241;48.374;10.876;2022-08-21T14:22:37;35.90;65.40
27896;DHT22;15241;48.374;10.876;2022-08-21T14:27:39;36.00;64.00
27896;DHT22;15241;48.374;10.876;2022-08-21T14:32:38;36.20;64.10
27896;DHT22;15241;48.374;10.876;2022-08-21T14:37:37;36.20;62.20
27896;DHT22;15241;48.374;10.876;2022-08-21T14:42:36;36.20;62.30
27896;DHT22;15241;48.374;10.876;2022-08-21T14:47:35;36.40;63.70
27896;DHT22;15241;48.374;10.876;2022-08-21T14:52:34;36.30;65.90
27896;DHT22;15241;48.374;10.876;2022-08-21T14:57:34;36.10;64.10
27896;DHT22;15241;48.374;10.876;2022-08-21T15:02:33;36.10;64.60
27896;DHT22;15241;48.374;10.876;2022-08-21T15:07:32;35.60;65.10
27896;DHT22;15241;48.374;10.876;2022-08-21T15:12:31;34.90;65.30
27896;DHT22;15241;48.374;10.876;2022-08-21T15:17:30;34.40;65.60
27896;DHT22;15241;48.374;10.876;2022-08-21T15:22:30;33.90;66.00
27896;DHT22;15241;48.374;10.876;2022-08-21T15:27:29;33.50;67.20
27896;DHT22;15241;48.374;10.876;2022-08-21T15:32:28;33.40;67.60
27896;DHT22;15241;48.374;10.876;2022-08-21T15:37:28;33.60;67.10
27896;DHT22;15241;48.374;10.876;2022-08-21T15:42:27;33.40;65.60
27896;DHT22;15241;48.374;10.876;2022-08-21T15:47:29;33.50;66.90
27896;DHT22;15241;48.374;10.876;2022-08-21T15:52:28;33.60;68.50
27896;DHT22;15241;48.374;10.876;2022-08-21T15:57:28;33.60;66.00
27896;DHT22;15241;48.374;10.876;2022-08-21T16:02:30;33.30;66.80
27896;DHT22;15241;48.374;10.876;2022-08-21T16:07:28;33.30;66.90
27896;DHT22;15241;48.374;10.876;2022-08-21T16:12:29;33.10;65.80
27896;DHT22;15241;48.374;10.876;2022-08-21T16:17:31;33.10;66.30
27896;DHT22;15241;48.374;10.876;2022-08-21T16:22:31;33.10;67.70
27896;DHT22;15241;48.374;10.876;2022-08-21T16:27:30;32.80;66.40
27896;DHT22;15241;48.374;10.876;2022-08-21T16:32:30;32.80;67.30
27896;DHT22;15241;48.374;10.876;2022-08-21T16:37:29;32.50;66.90
27896;DHT22;15241;48.374;10.876;2022-08-21T16:42:28;32.40;67.70
27896;DHT22;15241;48.374;10.876;2022-08-21T16:47:29;32.20;67.00
27896;DHT22;15241;48.374;10.876;2022-08-21T16:52:28;31.90;66.60
27896;DHT22;15241;48.374;10.876;2022-08-21T16:57:27;31.70;68.00
27896;DHT22;15241;48.374;10.876;2022-08-21T17:02:30;31.50;66.60
27896;DHT22;15241;48.374;10.876;2022-08-21T17:07:30;31.20;66.80
27896;DHT22;15241;48.374;10.876;2022-08-21T17:12:29;30.90;67.10
27896;DHT22;15241;48.374;10.876;2022-08-21T17:17:28;30.60;67.90
27896;DHT22;15241;48.374;10.876;2022-08-21T17:22:27;30.40;70.10
27896;DHT22;15241;48.374;10.876;2022-08-21T17:27:27;30.10;71.00
27896;DHT22;15241;48.374;10.876;2022-08-21T17:32:26;29.90;70.60
27896;DHT22;15241;48.374;10.876;2022-08-21T17:37:25;29.60;70.70
27896;DHT22;15241;48.374;10.876;2022-08-21T17:42:26;29.20;71.20
27896;DHT22;15241;48.374;10.876;2022-08-21T17:47:25;28.90;72.90
27896;DHT22;15241;48.374;10.876;2022-08-21T17:52:25;28.60;72.70
27896;DHT22;15241;48.374;10.876;2022-08-21T17:57:24;28.30;73.40
27896;DHT22;15241;48.374;10.876;2022-08-21T18:02:24;28.10;74.70
27896;DHT22;15241;48.374;10.876;2022-08-21T18:07:23;27.80;77.40
27896;DHT22;15241;48.374;10.876;2022-08-21T18:12:22;27.50;77.90
27896;DHT22;15241;48.374;10.876;2022-08-21T18:17:22;27.00;80.00
27896;DHT22;15241;48.374;10.876;2022-08-21T18:22:21;26.60;83.10
27896;DHT22;15241;48.374;10.876;2022-08-21T18:27:21;26.20;85.20
27896;DHT22;15241;48.374;10.876;2022-08-21T18:32:23;25.70;86.90
27896;DHT22;15241;48.374;10.876;2022-08-21T18:37:23;25.50;89.50
27896;DHT22;15241;48.374;10.876;2022-08-21T18:42:22;25.20;90.00
27896;DHT22;15241;48.374;10.876;2022-08-21T18:47:25;24.90;90.50
27896;DHT22;15241;48.374;10.876;2022-08-21T18:52:24;24.60;90.80
27896;DHT22;15241;48.374;10.876;2022-08-21T18:57:25;24.30;91.60
27896;DHT22;15241;48.374;10.876;2022-08-21T19:02:25;24.10;92.30
27896;DHT22;15241;48.374;10.876;2022-08-21T19:07:25;23.90;92.90
27896;DHT22;15241;48.374;10.876;2022-08-21T19:12:25;23.70;93.60
27896;DHT22;15241;48.374;10.876;2022-08-21T19:17:25;23.50;94.30
27896;DHT22;15241;48.374;10.876;2022-08-21T19:22:25;23.30;94.50
27896;DHT22;15241;48.374;10.876;2022-08-21T19:27:24;23.10;95.60
27896;DHT22;15241;48.374;10.876;2022-08-21T19:32:24;22.90;96.60
27896;DHT22;15241;48.374;10.876;2022-08-21T19:37:23;22.70;97.80
27896;DHT22;15241;48.374;10.876;2022-08-21T19:42:22;22.50;98.60
27896;DHT22;15241;48.374;10.876;2022-08-21T19:47:21;22.30;99.90
27896;DHT22;15241;48.374;10.876;2022-08-21T19:52:20;22.20;99.90
27896;DHT22;15241;48.374;10.876;2022-08-21T19:57:19;22.10;99.90
27896;DHT22;15241;48.374;10.876;2022-08-21T20:02:19;21.90;99.90
27896;DHT22;15241;48.374;10.876;2022-08-21T20:07:18;21.80;99.90
27896;DHT22;15241;48.374;10.876;2022-08-21T20:12:17;21.70;99.90
27896;DHT22;15241;48.374;10.876;2022-08-21T20:17:18;21.60;99.90
27896;DHT22;15241;48.374;10.876;2022-08-21T20:22:17;21.50;99.90
27896;DHT22;15241;48.374;10.876;2022-08-21T20:27:19;21.30;99.90
27896;DHT22;15241;48.374;10.876;2022-08-21T20:32:18;21.30;99.90
27896;DHT22;15241;48.374;10.876;2022-08-21T20:37:18;21.10;99.90
27896;DHT22;15241;48.374;10.876;2022-08-21T20:42:17;21.10;99.90
27896;DHT22;15241;48.374;10.876;2022-08-21T20:47:16;21.00;99.90
27896;DHT22;15241;48.374;10.876;2022-08-21T20:52:15;20.80;99.90
27896;DHT22;15241;48.374;10.876;2022-08-21T20:57:17;20.70;99.90
27896;DHT22;15241;48.374;10.876;2022-08-21T21:02:24;20.60;99.90
27896;DHT22;15241;48.374;10.876;2022-08-21T21:07:27;20.50;99.90
27896;DHT22;15241;48.374;10.876;2022-08-21T21:12:30;20.50;99.90
27896;DHT22;15241;48.374;10.876;2022-08-21T21:17:32;20.30;99.90
27896;DHT22;15241;48.374;10.876;2022-08-21T21:22:35;20.30;99.90
27896;DHT22;15241;48.374;10.876;2022-08-21T21:32:45;20.10;99.90
27896;DHT22;15241;48.374;10.876;2022-08-21T21:37:46;20.00;99.90
27896;DHT22;15241;48.374;10.876;2022-08-21T21:42:49;20.00;99.90
27896;DHT22;15241;48.374;10.876;2022-08-21T21:47:56;20.00;99.90
27896;DHT22;15241;48.374;10.876;2022-08-21T21:53:02;19.80;99.90
27896;DHT22;15241;48.374;10.876;2022-08-21T21:58:21;19.90;99.90
27896;DHT22;15241;48.374;10.876;2022-08-21T22:03:22;19.80;99.90
27896;DHT22;15241;48.374;10.876;2022-08-21T22:08:36;19.70;99.90
27896;DHT22;15241;48.374;10.876;2022-08-21T22:13:26;19.60;99.90
27896;DHT22;15241;48.374;10.876;2022-08-21T22:18:27;19.50;99.90
27896;DHT22;15241;48.374;10.876;2022-08-21T22:23:29;19.50;99.90
27896;DHT22;15241;48.374;10.876;2022-08-21T22:28:31;19.40;99.90
27896;DHT22;15241;48.374;10.876;2022-08-21T22:33:30;19.30;99.90
27896;DHT22;15241;48.374;10.876;2022-08-21T22:38:31;19.30;99.90
27896;DHT22;15241;48.374;10.876;2022-08-21T22:43:30;19.20;99.90
27896;DHT22;15241;48.374;10.876;2022-08-21T22:48:32;19.20;99.90
27896;DHT22;15241;48.374;10.876;2022-08-21T22:53:33;19.10;99.90
27896;DHT22;15241;48.374;10.876;2022-08-21T22:58:35;19.00;99.90
27896;DHT22;15241;48.374;10.876;2022-08-21T23:08:54;19.00;99.90
27896;DHT22;15241;48.374;10.876;2022-08-21T23:13:54;18.90;99.90
27896;DHT22;15241;48.374;10.876;2022-08-21T23:24:32;19.00;99.90
27896;DHT22;15241;48.374;10.876;2022-08-21T23:29:35;18.80;99.90
27896;DHT22;15241;48.374;10.876;2022-08-21T23:39:54;18.80;99.90
27896;DHT22;15241;48.374;10.876;2022-08-21T23:44:55;18.80;99.90
27896;DHT22;15241;48.374;10.876;2022-08-21T23:49:57;18.90;99.90
27896;DHT22;15241;48.374;10.876;2022-08-21T23:55:08;18.90;99.90
